Time;durP1;ratioP1;P1;durP2;ratioP2;P2;SDS_P1;SDS_P2;PMS_P1;PMS_P2;Temp;Humidity;BMP_temperature;BMP_pressure;BME280_temperature;BME280_humidity;BME280_pressure;Samples;Min_cycle;Max_cycle;Signal;HPM_P1;HPM_P2
2022/01/27 00:03:22;;;;;;;13.13;6.20;;;-2.90;61.30;;;-2.55;94.17;98811.72;5075870;27;113402;-66
2022/01/27 00:05:52;;;;;;;14.27;6.07;;;-2.90;62.60;;;-2.65;95.07;98817.69;5071748;27;131297;-65
2022/01/27 00:08:27;;;;;;;10.40;5.57;;;-2.90;66.80;;;-2.57;94.96;98809.31;5070809;27;129872;-66
2022/01/27 00:10:59;;;;;;;13.20;6.22;;;-2.90;68.50;;;-2.46;94.86;98804.13;5072177;27;119376;-66
2022/01/27 00:13:32;;;;;;;17.23;5.97;;;-2.80;70.40;;;-2.54;94.94;98800.84;5079283;27;113620;-66
2022/01/27 00:16:14;;;;;;;12.50;6.40;;;-2.90;71.20;;;-2.33;94.27;98806.47;5078569;27;129826;-66
2022/01/27 00:18:45;;;;;;;12.00;6.13;;;-2.80;72.60;;;-2.64;95.07;98808.66;5072060;27;129966;-66
2022/01/27 00:21:16;;;;;;;13.98;6.28;;;-2.90;69.30;;;-2.58;95.09;98806.88;5071926;27;118837;-66
2022/01/27 00:23:45;;;;;;;11.48;5.60;;;-2.90;71.20;;;-2.48;95.09;98807.03;5072314;27;113396;-66
2022/01/27 00:26:14;;;;;;;13.68;5.82;;;-2.90;71.60;;;-2.46;94.67;98809.44;5069254;27;129794;-66
2022/01/27 00:28:44;;;;;;;12.55;6.43;;;-2.90;73.20;;;-2.51;95.27;98806.72;5063005;27;129628;-66
2022/01/27 00:31:19;;;;;;;12.18;5.90;;;-2.90;75.40;;;-2.48;95.61;98798.25;5079845;27;118471;-66
2022/01/27 00:33:49;;;;;;;16.15;6.38;;;-2.80;78.20;;;-2.53;96.16;98793.66;5075888;27;114100;-66
2022/01/27 00:36:18;;;;;;;10.25;5.40;;;-2.80;80.20;;;-2.33;95.28;98793.16;5066605;27;130254;-66
2022/01/27 00:38:49;;;;;;;12.90;6.38;;;-2.80;83.00;;;-2.29;95.31;98794.31;5069785;27;130670;-66
2022/01/27 00:41:19;;;;;;;13.95;6.00;;;-2.80;84.30;;;-2.29;95.09;98788.16;5069789;27;118800;-65
2022/01/27 00:43:50;;;;;;;10.90;6.22;;;-2.80;84.50;;;-2.22;95.01;98789.59;5072614;27;113669;-66
2022/01/27 00:46:20;;;;;;;11.93;6.38;;;-2.80;87.30;;;-2.20;94.85;98776.06;5070070;27;129607;-66
2022/01/27 00:48:50;;;;;;;12.07;5.72;;;-2.80;88.00;;;-2.23;95.10;98777.38;5080290;27;129649;-66
2022/01/27 00:51:23;;;;;;;11.80;5.72;;;-2.70;87.30;;;-2.17;95.13;98776.41;5078436;27;118502;-67
2022/01/27 00:54:02;;;;;;;12.35;6.03;;;-2.70;89.10;;;-2.19;95.36;98767.84;5065766;27;113414;-66
2022/01/27 00:56:38;;;;;;;15.80;6.25;;;-2.70;89.60;;;-2.21;95.39;98767.28;5076459;27;129777;-67
2022/01/27 00:59:23;;;;;;;13.75;6.15;;;-2.70;89.20;;;-2.03;95.15;98758.19;5070873;27;130057;-66
2022/01/27 01:02:02;;;;;;;12.80;6.60;;;-2.70;91.00;;;-2.07;95.17;98762.41;5070384;27;118901;-66
2022/01/27 01:04:35;;;;;;;12.27;6.93;;;-2.70;90.50;;;-2.17;95.41;98765.75;5078230;27;113857;-66
2022/01/27 01:07:04;;;;;;;15.00;6.57;;;-2.70;92.10;;;-1.95;95.18;98762.28;5070075;27;130237;-66
2022/01/27 01:15:13;;;;;;;13.63;6.72;;;-2.50;93.60;;;-2.15;96.36;98756.72;5056050;27;113789;-66
2022/01/27 01:20:54;;;;;;;15.50;7.00;;;-2.50;94.00;;;-1.94;95.63;98742.63;5054361;27;129462;-66
2022/01/27 01:31:52;;;;;;;17.90;6.95;;;-2.40;97.90;;;-1.95;96.98;98719.72;5048418;27;129441;-66
2022/01/27 01:34:25;;;;;;;14.82;6.65;;;-2.40;98.70;;;-1.95;97.25;98708.31;5053068;27;117940;-66
2022/01/27 01:36:57;;;;;;;15.88;6.88;;;-2.40;99.30;;;-1.85;96.77;98711.88;5059881;27;112575;-66
2022/01/27 01:39:29;;;;;;;14.55;6.25;;;-2.40;99.90;;;-1.78;96.84;98716.22;5054569;27;129983;-66
2022/01/27 01:41:59;;;;;;;12.25;6.38;;;-2.40;99.90;;;-1.83;97.27;98712.44;5058181;27;129892;-66
2022/01/27 01:44:29;;;;;;;17.73;7.00;;;-2.40;99.90;;;-1.75;97.13;98713.03;5063104;27;118786;-66
2022/01/27 01:46:57;;;;;;;14.50;6.72;;;-2.30;99.90;;;-1.82;97.68;98713.25;5049875;27;114229;-66
2022/01/27 01:49:29;;;;;;;15.45;7.38;;;-2.30;99.90;;;-1.83;97.85;98715.09;5047942;27;129821;-66
2022/01/27 01:52:00;;;;;;;13.70;6.70;;;-2.30;99.90;;;-1.81;97.94;98705.03;5057132;27;129849;-66
2022/01/27 01:54:29;;;;;;;20.50;7.57;;;-2.30;99.90;;;-1.85;98.85;98706.56;5054359;27;118777;-66
2022/01/27 01:56:57;;;;;;;16.45;7.10;;;-2.30;99.90;;;-1.78;98.40;98702.91;5064611;27;113997;-66
2022/01/27 01:59:26;;;;;;;14.98;7.75;;;-2.20;99.90;;;-1.76;98.69;98690.16;5062100;27;129129;-66
2022/01/27 02:01:54;;;;;;;15.57;6.60;;;-2.20;99.90;;;-1.74;98.76;98683.53;5048889;27;130247;-66
2022/01/27 02:04:23;;;;;;;15.50;7.28;;;-2.20;99.90;;;-1.75;99.01;98686.44;5051126;27;118986;-66
2022/01/27 02:06:54;;;;;;;13.52;7.30;;;-2.20;99.90;;;-1.81;99.44;98689.06;5051032;27;113669;-66
2022/01/27 02:09:35;;;;;;;14.43;7.13;;;-2.10;99.90;;;-1.68;99.53;98681.75;5054342;27;130020;-66
2022/01/27 02:18:00;;;;;;;13.98;7.05;;;-2.10;99.90;;;-1.77;100.00;98677.91;5065165;27;113579;-66
2022/01/27 02:20:33;;;;;;;18.60;8.23;;;-2.00;99.90;;;-1.72;100.00;98677.97;5064141;27;129849;-66
2022/01/27 02:23:03;;;;;;;13.75;7.60;;;-2.00;99.90;;;-1.82;100.00;98676.81;5052802;27;129635;-66
2022/01/27 02:25:32;;;;;;;15.38;7.82;;;-2.00;99.90;;;-1.69;100.00;98674.81;5051557;27;119318;-66
2022/01/27 02:28:01;;;;;;;20.75;8.32;;;-2.00;99.90;;;-1.57;100.00;98672.78;5058083;27;113706;-66
2022/01/27 02:30:30;;;;;;;16.63;7.40;;;-2.00;99.90;;;-1.75;100.00;98675.81;5052061;27;130519;-66
2022/01/27 02:32:59;;;;;;;17.98;7.80;;;-2.00;99.90;;;-1.66;100.00;98669.78;5059100;27;129848;-67
2022/01/27 02:35:34;;;;;;;14.30;7.03;;;-2.00;99.90;;;-1.69;100.00;98667.63;5063659;27;119160;-66
2022/01/27 02:38:05;;;;;;;13.55;7.53;;;-1.90;99.90;;;-1.50;100.00;98657.41;5047618;27;113521;-66
2022/01/27 02:40:39;;;;;;;15.68;7.93;;;-1.90;99.90;;;-1.48;99.90;98660.63;5060083;27;128052;-66
2022/01/27 02:43:08;;;;;;;16.00;7.80;;;-1.90;99.90;;;-1.39;99.61;98658.31;5052757;27;129641;-66
2022/01/27 02:45:51;;;;;;;15.73;7.90;;;-1.90;99.90;;;-1.45;99.45;98660.13;5046059;27;119010;-66
2022/01/27 02:48:19;;;;;;;17.50;8.02;;;-1.90;99.90;;;-1.46;99.67;98658.50;5042679;27;113501;-66
2022/01/27 02:50:49;;;;;;;19.27;8.48;;;-1.80;99.90;;;-1.46;99.80;98658.50;5057530;27;130001;-66
2022/01/27 02:53:18;;;;;;;15.27;7.25;;;-1.80;99.90;;;-1.51;100.00;98655.81;5050154;27;129769;-66
2022/01/27 02:55:46;;;;;;;20.70;8.38;;;-1.80;99.90;;;-1.53;100.00;98652.59;5064728;27;119320;-66
2022/01/27 02:58:16;;;;;;;14.23;7.40;;;-1.80;99.90;;;-1.36;99.75;98657.00;5056029;27;113515;-66
2022/01/27 03:00:44;;;;;;;17.95;7.70;;;-1.80;99.90;;;-1.42;99.98;98655.34;5045860;27;129784;-66
2022/01/27 03:03:12;;;;;;;15.43;7.85;;;-1.80;99.90;;;-1.40;100.00;98648.72;5053403;27;129764;-66
2022/01/27 03:05:41;;;;;;;16.25;8.13;;;-1.80;99.90;;;-1.25;99.40;98653.34;5052882;27;119785;-66
2022/01/27 03:08:11;;;;;;;16.40;8.35;;;-1.80;99.90;;;-1.23;99.11;98656.59;5057913;27;113497;-67
2022/01/27 03:10:54;;;;;;;14.00;7.78;;;-1.70;99.90;;;-1.26;99.75;98646.44;5059578;27;131926;-66
2022/01/27 03:13:23;;;;;;;16.88;8.30;;;-1.70;99.90;;;-1.27;99.72;98650.16;5042148;27;130330;-66
2022/01/27 03:15:51;;;;;;;17.13;8.07;;;-1.70;99.90;;;-1.24;99.66;98659.50;5063504;27;118818;-66
2022/01/27 03:18:19;;;;;;;12.98;6.75;;;-1.70;99.90;;;-1.21;99.75;98654.47;5052879;27;113423;-68
2022/01/27 03:20:48;;;;;;;16.08;7.50;;;-1.70;99.90;;;-1.05;99.15;98646.59;5055545;27;129793;-67
2022/01/27 03:23:18;;;;;;;15.38;7.68;;;-1.60;99.90;;;-1.06;99.25;98642.31;5054589;27;129689;-67
2022/01/27 03:25:47;;;;;;;18.48;8.80;;;-1.60;99.90;;;-0.97;99.09;98638.91;5049549;27;117959;-65
2022/01/27 03:28:18;;;;;;;13.65;7.93;;;-1.60;99.90;;;-1.04;99.10;98633.00;5060650;27;112559;-67
2022/01/27 03:30:47;;;;;;;18.60;8.10;;;-1.60;99.90;;;-1.03;99.40;98636.47;5055675;27;130440;-67
2022/01/27 03:33:16;;;;;;;17.85;8.32;;;-1.60;99.90;;;-0.99;99.08;98632.25;5053596;27;130328;-67
2022/01/27 03:35:44;;;;;;;14.93;8.02;;;-1.50;99.90;;;-0.91;99.26;98631.75;5050211;27;118649;-68
2022/01/27 03:38:13;;;;;;;16.60;8.40;;;-1.50;99.90;;;-0.79;98.67;98634.22;5059909;27;112441;-66
2022/01/27 03:40:43;;;;;;;17.35;8.38;;;-1.40;99.90;;;-0.78;98.62;98626.00;5058820;27;129326;-66
2022/01/27 03:43:12;;;;;;;17.67;8.52;;;-1.40;99.90;;;-0.70;97.98;98615.88;5055827;27;129757;-68
2022/01/27 03:45:40;;;;;;;20.70;8.68;;;-1.40;99.90;;;-0.67;98.37;98612.69;5052680;27;118944;-67
2022/01/27 03:48:09;;;;;;;18.52;9.15;;;-1.40;99.90;;;-0.66;98.20;98617.78;5059841;27;114117;-68
2022/01/27 03:50:38;;;;;;;16.77;8.82;;;-1.30;99.90;;;-0.69;98.50;98612.97;5052980;27;129743;-68
2022/01/27 03:53:06;;;;;;;21.25;9.60;;;-1.30;99.90;;;-0.64;98.75;98614.84;5057296;27;130163;-66
2022/01/27 03:55:35;;;;;;;22.27;10.35;;;-1.30;99.90;;;-0.58;98.80;98613.81;5059781;27;118191;-69
2022/01/27 03:58:05;;;;;;;22.10;9.15;;;-1.20;99.90;;;-0.62;99.03;98610.06;5049285;27;115895;-67
2022/01/27 04:00:33;;;;;;;17.80;8.63;;;-1.20;99.90;;;-0.48;98.64;98603.19;5057510;27;132084;-66
2022/01/27 04:03:05;;;;;;;16.75;9.30;;;-1.20;99.90;;;-0.54;98.76;98596.25;5052041;27;130494;-66
2022/01/27 04:05:37;;;;;;;20.13;9.88;;;-1.20;99.90;;;-0.53;99.21;98600.53;5061375;27;118768;-66
2022/01/27 04:08:08;;;;;;;21.00;10.57;;;-1.10;99.90;;;-0.50;99.73;98599.19;5061282;27;113652;-66
2022/01/27 04:10:38;;;;;;;19.75;10.73;;;-1.10;99.90;;;-0.48;99.74;98600.53;5051422;27;129768;-66
2022/01/27 04:13:09;;;;;;;20.40;10.73;;;-1.20;99.90;;;-0.38;99.60;98605.88;5059142;27;129712;-65
2022/01/27 04:15:42;;;;;;;20.23;10.10;;;-1.00;99.90;;;-0.48;99.92;98591.72;5056126;27;118964;-65
2022/01/27 04:18:11;;;;;;;22.98;11.10;;;-1.00;99.90;;;-0.58;100.00;98598.63;5057689;27;115955;-66
2022/01/27 04:20:41;;;;;;;21.70;10.98;;;-0.90;99.90;;;-0.41;100.00;98590.41;5049433;27;129829;-66
2022/01/27 04:23:10;;;;;;;23.08;11.57;;;-0.90;99.90;;;-0.35;100.00;98595.78;5055225;27;129419;-66
2022/01/27 04:25:39;;;;;;;22.25;11.02;;;-0.80;99.90;;;-0.42;100.00;98591.50;5050104;27;118415;-66
2022/01/27 04:28:12;;;;;;;26.60;11.30;;;-0.80;99.90;;;-0.39;100.00;98590.97;5041393;27;115645;-66
2022/01/27 04:30:41;;;;;;;26.98;11.95;;;-0.80;99.90;;;-0.31;100.00;98591.50;5051458;27;130413;-65
2022/01/27 04:33:09;;;;;;;24.05;11.82;;;-0.70;99.90;;;-0.25;100.00;98593.13;5042147;27;130317;-70
2022/01/27 04:35:43;;;;;;;24.08;11.68;;;-0.70;99.90;;;-0.24;100.00;98592.06;5041913;27;119071;-70
2022/01/27 04:38:22;;;;;;;24.40;12.98;;;-0.60;99.90;;;-0.22;100.00;98587.28;5050859;27;115764;-70
2022/01/27 04:40:58;;;;;;;24.10;12.30;;;-0.60;99.90;;;-0.07;100.00;98587.31;5053564;27;130373;-70
2022/01/27 04:43:36;;;;;;;34.35;15.20;;;-0.60;99.90;;;-0.14;100.00;98572.63;5040305;27;130520;-71
2022/01/27 04:46:15;;;;;;;31.33;14.20;;;-0.60;99.90;;;-0.20;100.00;98571.84;5057167;27;118596;-71
2022/01/27 04:48:47;;;;;;;28.38;14.00;;;-0.60;99.90;;;-0.10;100.00;98574.50;5051100;27;116015;-70
2022/01/27 04:51:17;;;;;;;34.50;13.73;;;-0.50;99.90;;;-0.12;100.00;98578.53;5044416;27;130047;-69
2022/01/27 04:53:55;;;;;;;29.00;14.10;;;-0.50;99.90;;;-0.10;100.00;98569.16;5045011;27;129984;-71
2022/01/27 04:56:25;;;;;;;30.70;14.48;;;-0.50;99.90;;;-0.15;100.00;98558.50;5045444;27;118761;-70
2022/01/27 04:58:59;;;;;;;30.63;14.35;;;-0.50;99.90;;;-0.03;100.00;98560.94;5047919;27;115808;-72
2022/01/27 05:01:32;;;;;;;32.40;14.55;;;-0.40;99.90;;;0.17;100.00;98560.13;5044849;27;129933;-71
2022/01/27 05:04:06;;;;;;;29.63;15.02;;;-0.40;99.90;;;0.18;100.00;98561.75;5044827;27;129704;-71
2022/01/27 05:06:34;;;;;;;34.60;15.45;;;-0.40;99.90;;;0.27;100.00;98567.34;5047385;27;118822;-71
2022/01/27 05:09:04;;;;;;;28.48;13.98;;;-0.40;99.90;;;0.24;100.00;98555.34;5044680;27;115807;-72
2022/01/27 05:11:35;;;;;;;30.90;14.10;;;-0.40;99.90;;;0.21;100.00;98553.19;5044949;27;131252;-69
2022/01/27 05:14:11;;;;;;;34.10;14.77;;;-0.40;99.90;;;0.29;100.00;98558.00;5044139;27;129696;-69
2022/01/27 05:16:40;;;;;;;29.25;13.50;;;-0.40;99.90;;;0.34;100.00;98555.34;5043484;27;119199;-69
2022/01/27 05:19:08;;;;;;;27.98;14.25;;;-0.40;99.90;;;0.32;100.00;98552.13;5046682;27;114913;-69
2022/01/27 05:21:37;;;;;;;30.50;13.95;;;-0.30;99.90;;;0.29;100.00;98550.00;5029110;27;128690;-68
2022/01/27 05:24:07;;;;;;;31.98;14.63;;;-0.30;99.90;;;0.47;100.00;98535.31;5043108;27;129622;-69
2022/01/27 05:26:38;;;;;;;40.53;15.52;;;-0.30;99.90;;;0.54;100.00;98543.03;5046276;27;118563;-68
2022/01/27 05:29:09;;;;;;;31.63;14.85;;;-0.30;99.90;;;0.54;100.00;98537.72;5046782;27;115639;-69
2022/01/27 05:31:39;;;;;;;34.83;15.27;;;-0.30;99.90;;;0.39;100.00;98537.72;5046307;27;130149;-69
2022/01/27 05:34:07;;;;;;;33.58;15.73;;;-0.30;99.90;;;0.42;100.00;98534.50;5046272;27;129693;-69
2022/01/27 05:36:36;;;;;;;35.67;16.65;;;-0.30;99.90;;;0.50;100.00;98534.78;5046443;27;119323;-69
2022/01/27 05:39:05;;;;;;;34.78;16.30;;;-0.30;99.90;;;0.62;100.00;98531.03;5043175;27;115820;-66
2022/01/27 05:41:34;;;;;;;38.80;16.75;;;-0.20;99.90;;;0.69;100.00;98532.34;5045260;27;130633;-68
2022/01/27 05:44:03;;;;;;;35.17;15.88;;;-0.20;99.90;;;0.62;100.00;98526.47;5028950;27;129077;-69
2022/01/27 05:46:32;;;;;;;33.72;16.38;;;-0.20;99.90;;;0.54;100.00;98535.81;5043262;27;117983;-69
2022/01/27 05:49:02;;;;;;;36.80;16.30;;;-0.20;99.90;;;0.55;100.00;98528.63;5044124;27;115774;-70
2022/01/27 05:51:30;;;;;;;29.67;15.55;;;-0.20;99.90;;;0.63;100.00;98532.63;5045553;27;128787;-70
2022/01/27 05:53:59;;;;;;;37.13;17.10;;;-0.20;99.90;;;0.62;100.00;98531.81;5045194;27;130102;-69
2022/01/27 05:56:27;;;;;;;37.85;17.27;;;-0.20;99.90;;;0.59;100.00;98531.56;5045927;27;118429;-69
2022/01/27 05:58:56;;;;;;;31.67;15.00;;;-0.20;99.90;;;0.59;100.00;98523.56;5045803;27;115742;-68
2022/01/27 06:01:25;;;;;;;37.05;16.25;;;-0.20;99.90;;;0.60;100.00;98522.50;5045495;27;128670;-68
2022/01/27 06:03:56;;;;;;;37.25;16.38;;;-0.10;99.90;;;0.74;100.00;98523.53;5043142;27;129775;-68
2022/01/27 06:06:24;;;;;;;37.85;16.13;;;-0.10;99.90;;;0.58;100.00;98514.75;5046241;27;119476;-69
2022/01/27 06:08:53;;;;;;;30.30;15.15;;;0.00;99.90;;;0.76;100.00;98532.06;5041006;27;116069;-68
2022/01/27 06:11:21;;;;;;;31.00;13.52;;;0.10;99.90;;;0.67;100.00;98526.47;5043426;27;129990;-69
2022/01/27 06:13:50;;;;;;;33.92;14.05;;;0.10;99.90;;;0.69;100.00;98531.56;5044553;27;129510;-69
2022/01/27 06:16:18;;;;;;;39.03;13.95;;;0.20;99.90;;;0.79;100.00;98538.75;5043929;27;118860;-69
2022/01/27 06:18:47;;;;;;;34.70;14.73;;;0.20;99.90;;;0.93;100.00;98525.63;5042788;27;115903;-68
2022/01/27 06:21:17;;;;;;;32.45;13.65;;;0.30;99.90;;;0.82;100.00;98514.94;5042702;27;129995;-68
2022/01/27 06:23:45;;;;;;;29.08;12.15;;;0.30;99.90;;;0.82;100.00;98527.50;5042751;27;129735;-69
2022/01/27 06:26:14;;;;;;;25.33;10.80;;;0.40;99.90;;;0.79;100.00;98528.06;5046339;27;119136;-69
2022/01/27 06:28:42;;;;;;;29.33;11.98;;;0.40;99.90;;;0.87;100.00;98530.16;5045481;27;115674;-69
2022/01/27 06:31:11;;;;;;;27.15;12.13;;;0.50;99.90;;;0.93;100.00;98523.75;5042916;27;130705;-69
2022/01/27 06:33:39;;;;;;;31.70;12.50;;;0.50;99.90;;;0.96;100.00;98522.41;5043082;27;129628;-69
2022/01/27 06:36:07;;;;;;;23.45;11.32;;;0.50;99.90;;;0.96;100.00;98522.41;5044672;27;119402;-68
2022/01/27 06:38:37;;;;;;;28.70;11.55;;;0.60;99.90;;;1.00;100.00;98513.56;5045547;27;115769;-69
2022/01/27 06:41:05;;;;;;;20.70;9.80;;;0.60;99.90;;;0.98;100.00;98515.72;5045297;27;130065;-71
2022/01/27 06:43:34;;;;;;;27.08;11.15;;;0.70;99.90;;;1.12;100.00;98517.81;5043000;27;129651;-69
2022/01/27 06:46:02;;;;;;;22.85;10.90;;;0.70;99.90;;;1.20;100.00;98514.56;5041461;27;119568;-68
2022/01/27 06:48:31;;;;;;;25.17;11.95;;;0.70;99.90;;;1.36;100.00;98521.44;5043428;27;115910;-70
2022/01/27 06:51:01;;;;;;;23.05;9.38;;;0.80;99.90;;;1.24;100.00;98510.28;5043631;27;129776;-68
2022/01/27 06:53:30;;;;;;;20.42;9.20;;;0.80;99.90;;;1.35;100.00;98519.84;5043244;27;129875;-69
2022/01/27 06:56:00;;;;;;;17.75;8.57;;;0.90;99.90;;;1.41;100.00;98499.22;5043528;27;118826;-69
2022/01/27 06:58:30;;;;;;;18.67;8.43;;;1.00;99.90;;;1.39;100.00;98499.50;5044340;27;115821;-69
2022/01/27 07:00:58;;;;;;;16.48;8.77;;;1.00;99.90;;;1.52;100.00;98494.63;5044566;27;129813;-69
2022/01/27 07:03:26;;;;;;;17.27;8.75;;;1.00;99.90;;;1.69;100.00;98496.94;5045036;27;130098;-70
2022/01/27 07:05:55;;;;;;;21.40;9.50;;;1.10;99.90;;;1.65;100.00;98498.56;5043371;27;119027;-69
2022/01/27 07:08:24;;;;;;;27.88;10.38;;;1.10;99.90;;;1.80;100.00;98496.56;5044152;27;115334;-69
2022/01/27 07:10:52;;;;;;;26.05;10.73;;;1.20;99.90;;;1.74;100.00;98500.38;5043385;27;130174;-70
2022/01/27 07:13:22;;;;;;;25.25;11.07;;;1.20;99.90;;;1.66;100.00;98503.63;5042701;27;129362;-70
2022/01/27 07:15:50;;;;;;;22.52;10.07;;;1.20;99.90;;;1.63;100.00;98501.50;5045116;27;118880;-69
2022/01/27 07:18:19;;;;;;;21.25;11.15;;;1.20;99.90;;;1.89;100.00;98507.50;5042714;27;115947;-69
2022/01/27 07:20:47;;;;;;;17.60;9.48;;;1.30;99.90;;;2.03;100.00;98506.88;5045335;27;130812;-69
2022/01/27 07:23:16;;;;;;;23.73;10.75;;;1.30;99.90;;;2.07;100.00;98508.72;5042352;27;130165;-70
2022/01/27 07:25:45;;;;;;;22.10;10.27;;;1.40;99.90;;;2.31;99.78;98508.00;5042923;27;119204;-70
2022/01/27 07:28:13;;;;;;;25.08;10.73;;;1.40;99.90;;;2.40;98.95;98503.63;5042695;27;115810;-71
2022/01/27 07:30:43;;;;;;;23.17;10.18;;;1.50;99.90;;;2.45;98.00;98503.56;5041908;27;130500;-69
2022/01/27 07:33:12;;;;;;;20.73;9.45;;;1.50;99.90;;;2.41;98.00;98505.19;5044945;27;129694;-69
2022/01/27 07:35:41;;;;;;;23.63;9.85;;;1.50;99.90;;;2.47;97.27;98500.63;5044661;27;118969;-71
2022/01/27 07:38:09;;;;;;;26.67;9.52;;;1.50;99.90;;;2.32;97.38;98494.31;5042966;27;115641;-69
2022/01/27 07:40:38;;;;;;;24.08;9.93;;;1.50;99.90;;;2.44;97.24;98496.59;5044177;27;129977;-68
2022/01/27 07:43:06;;;;;;;32.85;9.40;;;1.60;99.90;;;2.62;96.94;98497.78;5044531;27;130623;-68
2022/01/27 07:45:35;;;;;;;21.00;9.10;;;1.60;99.90;;;2.57;96.25;98505.88;5042373;27;118582;-69
2022/01/27 07:48:06;;;;;;;16.08;9.25;;;1.60;99.90;;;2.50;96.50;98497.38;5043418;27;115679;-70
2022/01/27 07:50:34;;;;;;;21.58;9.70;;;1.50;99.90;;;2.39;96.89;98487.84;5042722;27;130769;-70
2022/01/27 07:53:03;;;;;;;21.35;10.10;;;1.50;99.90;;;2.38;97.29;98487.03;5044397;27;129814;-69
2022/01/27 07:55:31;;;;;;;28.05;10.88;;;1.50;99.90;;;2.40;97.57;98484.88;5045702;27;118709;-70
2022/01/27 07:58:00;;;;;;;22.23;10.43;;;1.50;99.90;;;2.66;96.75;98476.56;5042162;27;116637;-70
2022/01/27 08:00:28;;;;;;;21.85;10.52;;;1.60;99.90;;;2.74;96.00;98473.28;5042191;27;129817;-70
2022/01/27 08:02:57;;;;;;;21.65;10.05;;;1.60;99.90;;;2.60;95.39;98477.72;5042744;27;129621;-70
2022/01/27 08:05:27;;;;;;;21.83;10.13;;;1.60;99.90;;;2.49;96.07;98477.00;5044189;27;118557;-70
2022/01/27 08:07:56;;;;;;;24.17;10.13;;;1.60;99.90;;;2.60;96.60;98477.72;5044364;27;116374;-70
2022/01/27 08:10:24;;;;;;;24.92;9.68;;;1.70;99.90;;;2.80;95.58;98482.84;5044794;27;130284;-70
2022/01/27 08:12:53;;;;;;;25.27;9.70;;;1.70;99.90;;;2.75;94.85;98476.75;5040537;27;129672;-69
2022/01/27 08:15:22;;;;;;;19.23;9.45;;;1.70;99.90;;;2.79;94.84;98467.88;5042963;27;119554;-70
2022/01/27 08:17:51;;;;;;;24.25;10.93;;;1.80;99.90;;;2.79;94.74;98465.19;5043935;27;115447;-69
2022/01/27 08:20:19;;;;;;;22.90;9.88;;;1.70;99.90;;;2.88;94.45;98468.84;5044487;27;130233;-69
2022/01/27 08:22:51;;;;;;;26.73;13.07;;;1.80;98.90;;;3.09;93.35;98476.63;5048074;27;129657;-69
2022/01/27 08:25:20;;;;;;;19.58;9.27;;;1.90;99.30;;;3.27;92.61;98479.63;5045408;27;119450;-69
2022/01/27 08:27:52;;;;;;;21.10;9.40;;;2.00;93.60;;;3.55;91.01;98475.22;5046771;27;115152;-69
2022/01/27 08:30:24;;;;;;;18.42;8.23;;;2.10;94.00;;;3.79;89.76;98475.16;5045165;27;129840;-70
2022/01/27 08:32:58;;;;;;;20.95;8.85;;;2.20;90.50;;;3.66;89.34;98465.16;5045106;27;129604;-70
2022/01/27 08:35:27;;;;;;;20.17;7.90;;;2.30;78.30;;;3.60;90.15;98461.75;5048172;27;119120;-69
2022/01/27 08:37:57;;;;;;;19.98;8.40;;;2.20;80.80;;;3.41;89.86;98464.41;5046218;27;115694;-70
2022/01/27 08:40:26;;;;;;;13.50;6.75;;;2.00;80.70;;;3.41;89.61;98472.47;5045311;27;129820;-69
2022/01/27 08:42:54;;;;;;;15.70;8.38;;;2.00;84.20;;;3.21;91.35;98460.94;5046856;27;130420;-68
2022/01/27 08:45:24;;;;;;;19.83;8.02;;;2.00;82.50;;;3.41;90.74;98467.09;5047375;27;118841;-69
2022/01/27 08:47:55;;;;;;;21.50;8.40;;;2.10;89.20;;;3.67;89.11;98464.06;5048161;27;114841;-70
2022/01/27 08:50:24;;;;;;;17.25;8.20;;;2.10;86.90;;;3.94;88.30;98452.63;5027665;27;130614;-70
2022/01/27 08:52:53;;;;;;;16.05;7.50;;;2.40;88.50;;;4.06;87.94;98452.97;5045949;27;130235;-70
2022/01/27 08:55:24;;;;;;;23.52;7.25;;;2.40;74.20;;;3.86;87.78;98451.41;5046877;27;119159;-70
2022/01/27 08:57:54;;;;;;;13.65;7.20;;;2.40;73.20;;;3.83;87.40;98465.41;5047127;27;115242;-70
2022/01/27 09:00:22;;;;;;;14.70;7.22;;;2.30;74.40;;;3.90;87.95;98449.75;5047388;27;130940;-69
2022/01/27 09:02:51;;;;;;;13.65;6.65;;;2.40;68.30;;;4.09;87.46;98444.34;5047864;27;129519;-70
2022/01/27 09:05:19;;;;;;;16.38;6.70;;;2.50;65.80;;;3.80;88.42;98444.53;5045950;27;120140;-70
2022/01/27 09:07:50;;;;;;;13.98;6.55;;;2.40;64.00;;;3.79;88.55;98442.94;5046769;27;115210;-69
2022/01/27 09:10:19;;;;;;;13.55;6.47;;;2.40;72.80;;;3.76;88.41;98443.53;5046683;27;129838;-69
2022/01/27 09:12:48;;;;;;;14.43;6.70;;;2.30;73.60;;;3.58;88.32;98440.59;5043220;27;129842;-70
2022/01/27 09:15:18;;;;;;;12.13;6.07;;;2.20;72.30;;;3.26;90.77;98451.22;5048250;27;119205;-70
2022/01/27 09:17:46;;;;;;;15.98;6.25;;;2.10;77.10;;;3.11;91.35;98439.59;5046600;27;115249;-69
2022/01/27 09:20:16;;;;;;;15.70;7.28;;;2.10;81.40;;;3.43;91.15;98435.44;5045799;27;130423;-69
2022/01/27 09:22:45;;;;;;;14.68;7.72;;;2.20;84.40;;;3.76;90.30;98448.91;5044243;27;129583;-69
2022/01/27 09:25:18;;;;;;;18.20;7.10;;;2.30;90.70;;;3.83;89.21;98446.63;5046347;27;119473;-70
2022/01/27 09:27:49;;;;;;;12.90;6.95;;;2.40;87.80;;;3.77;88.46;98431.69;5047850;27;115539;-71
2022/01/27 09:30:20;;;;;;;15.93;7.20;;;2.30;83.30;;;3.91;89.30;98432.56;5044654;27;129665;-71
2022/01/27 09:32:49;;;;;;;14.70;6.28;;;2.40;79.50;;;3.86;89.04;98438.00;5045540;27;129827;-71
2022/01/27 09:35:18;;;;;;;15.50;7.03;;;2.30;85.40;;;3.78;89.32;98425.25;5044775;27;118688;-71
2022/01/27 09:37:47;;;;;;;14.25;7.32;;;2.30;86.40;;;3.67;90.54;98423.81;5047417;27;115052;-70
2022/01/27 09:40:16;;;;;;;15.50;7.55;;;2.20;90.10;;;3.76;90.43;98422.06;5043440;27;129787;-70
2022/01/27 09:42:49;;;;;;;12.55;6.90;;;2.30;89.80;;;3.68;90.35;98420.06;5045477;27;130493;-70
2022/01/27 09:45:21;;;;;;;12.57;7.10;;;2.20;94.50;;;3.82;88.80;98426.25;5041390;27;118939;-70
2022/01/27 09:47:54;;;;;;;12.13;7.57;;;2.30;92.00;;;3.48;90.11;98427.31;5045134;27;115284;-73
2022/01/27 09:50:34;;;;;;;17.23;7.78;;;2.20;90.20;;;3.60;90.43;98422.31;5043534;27;131190;-71
2022/01/27 09:53:03;;;;;;;14.23;7.18;;;2.30;92.40;;;4.06;88.82;98419.97;5041591;27;130358;-73
2022/01/27 09:55:32;;;;;;;13.07;7.40;;;2.40;90.80;;;4.18;88.46;98422.97;5044885;27;118463;-73
2022/01/27 09:58:01;;;;;;;14.18;7.22;;;2.50;88.80;;;4.31;87.14;98427.56;5045285;27;114798;-73
2022/01/27 10:00:32;;;;;;;12.60;7.15;;;2.60;84.00;;;4.39;86.55;98425.28;5047370;27;129645;-73
2022/01/27 10:03:10;;;;;;;12.95;7.00;;;2.60;74.80;;;4.30;87.17;98407.19;5048359;27;130139;-74
2022/01/27 10:05:39;;;;;;;13.35;7.13;;;2.70;72.50;;;4.60;86.08;98402.31;5046002;27;119240;-73
2022/01/27 10:08:12;;;;;;;11.82;7.70;;;2.80;68.20;;;4.66;86.47;98405.72;5045691;27;114999;-72
2022/01/27 10:10:43;;;;;;;12.95;7.00;;;2.90;62.40;;;4.92;84.49;98403.28;5046784;27;129859;-73
2022/01/27 10:13:35;;;;;;;14.15;7.13;;;3.00;58.60;;;4.93;85.05;98398.72;5045352;27;130319;-73
2022/01/27 10:16:07;;;;;;;13.10;7.80;;;3.00;64.60;;;5.21;84.64;98399.47;5044227;27;118986;-73
2022/01/27 10:18:41;;;;;;;13.80;6.97;;;3.10;63.80;;;5.21;82.75;98402.94;5047661;27;115479;-73
2022/01/27 10:21:12;;;;;;;13.52;7.82;;;3.10;65.90;;;5.27;83.54;98398.25;5046886;27;129731;-73
2022/01/27 10:23:44;;;;;;;14.00;7.40;;;3.10;67.60;;;5.03;83.12;98388.56;5046901;27;129759;-72
2022/01/27 10:26:22;;;;;;;15.55;6.97;;;3.00;58.40;;;4.78;84.28;98391.75;5044895;27;119274;-72
2022/01/27 10:29:02;;;;;;;12.48;7.75;;;2.90;53.20;;;4.60;85.51;98386.22;5044641;27;115449;-72
2022/01/27 10:31:32;;;;;;;14.25;7.72;;;2.80;68.70;;;4.70;85.50;98379.03;5045969;27;130922;-71
2022/01/27 10:34:02;;;;;;;11.93;6.05;;;2.80;71.50;;;4.73;84.85;98383.81;5046689;27;129830;-71
2022/01/27 10:36:35;;;;;;;12.50;6.45;;;2.80;69.30;;;4.57;85.13;98375.28;5047521;27;118619;-72
2022/01/27 10:39:09;;;;;;;11.88;6.28;;;2.90;72.90;;;4.54;85.59;98382.03;5044027;27;115077;-72
2022/01/27 10:41:40;;;;;;;14.90;6.80;;;2.80;66.00;;;4.54;86.24;98373.97;5028760;27;129514;-72
2022/01/27 10:44:13;;;;;;;12.27;6.20;;;2.80;72.90;;;4.47;86.02;98368.19;5044496;27;130273;-72
2022/01/27 10:47:05;;;;;;;12.60;6.30;;;2.80;65.80;;;4.21;86.46;98371.38;5043810;27;119092;-70